Time;durP1;ratioP1;P1;durP2;ratioP2;P2;SDS_P1;SDS_P2;PMS_P1;PMS_P2;Temp;Humidity;BMP_temperature;BMP_pressure;BME280_temperature;BME280_humidity;BME280_pressure;Samples;Min_cycle;Max_cycle;Signal;HPM_P1;HPM_P2
2021/12/04 00:01:54;;;;;;;28.20;11.27;;;-0.30;99.90;;;;;;5049443;28;20030;-89
2021/12/04 00:04:33;;;;;;;29.15;11.35;;;-0.40;99.90;;;;;;5036687;28;20052;-87
2021/12/04 00:06:59;;;;;;;27.85;11.38;;;-0.40;99.90;;;;;;5029263;28;20037;-88
2021/12/04 00:09:25;;;;;;;28.40;12.13;;;-0.40;99.90;;;;;;5035055;28;20354;-88
2021/12/04 00:12:01;;;;;;;30.20;11.55;;;-0.40;99.90;;;;;;5018089;28;20029;-86
2021/12/04 00:14:27;;;;;;;30.67;13.43;;;-0.50;99.90;;;;;;5018185;28;20025;-89
2021/12/04 00:16:55;;;;;;;31.35;11.80;;;-0.50;99.90;;;;;;5018060;28;20017;-91
2021/12/04 00:19:25;;;;;;;28.10;12.07;;;-0.50;99.90;;;;;;5017028;28;20017;-90
2021/12/04 00:21:51;;;;;;;35.63;14.05;;;-0.50;99.90;;;;;;5017737;28;20064;-88
2021/12/04 00:24:18;;;;;;;35.38;13.38;;;-0.60;99.90;;;;;;5017965;28;20475;-89
2021/12/04 00:26:45;;;;;;;42.15;14.55;;;-0.60;99.90;;;;;;5017570;28;20128;-90
2021/12/04 00:29:11;;;;;;;35.25;12.43;;;-0.60;99.90;;;;;;5016956;28;20034;-87
2021/12/04 00:31:44;;;;;;;34.73;12.37;;;-0.60;99.90;;;;;;5033424;28;20762;-91
2021/12/04 00:34:10;;;;;;;29.80;11.48;;;-0.70;99.90;;;;;;5016558;28;20381;-89
2021/12/04 00:50:01;;;;;;;30.38;12.90;;;-0.80;99.90;;;;;;5034514;28;20049;-90
2021/12/04 00:52:27;;;;;;;32.50;12.85;;;-0.80;99.90;;;;;;5017806;28;20516;-93
2021/12/04 00:54:53;;;;;;;29.45;12.52;;;-0.80;99.90;;;;;;5035486;28;20087;-87
2021/12/04 00:57:18;;;;;;;33.22;12.82;;;-0.90;99.90;;;;;;5017425;28;20096;-91
2021/12/04 00:59:44;;;;;;;36.75;13.63;;;-0.90;99.90;;;;;;5034906;28;20028;-87
2021/12/04 01:02:10;;;;;;;32.35;11.82;;;-0.90;99.90;;;;;;5017567;28;20025;-89
2021/12/04 01:04:36;;;;;;;31.55;11.73;;;-0.90;99.90;;;;;;5018364;28;20084;-91
2021/12/04 01:07:02;;;;;;;32.65;12.80;;;-0.80;99.90;;;;;;5018821;28;20033;-90
2021/12/04 01:09:28;;;;;;;30.30;11.60;;;-0.80;99.90;;;;;;5035927;28;20385;-90
2021/12/04 01:11:55;;;;;;;25.73;10.77;;;-0.80;99.90;;;;;;5017238;28;20021;-91
2021/12/04 01:14:23;;;;;;;28.10;11.98;;;-0.70;99.90;;;;;;5022788;28;20063;-87
2021/12/04 01:16:50;;;;;;;28.45;11.43;;;-0.70;99.90;;;;;;5024126;28;20084;-87
2021/12/04 01:19:18;;;;;;;26.70;10.88;;;-0.70;99.90;;;;;;5017721;28;20078;-91
2021/12/04 01:21:45;;;;;;;26.05;10.65;;;-0.70;99.90;;;;;;5017310;28;20084;-87
2021/12/04 01:24:13;;;;;;;24.75;11.63;;;-0.70;99.90;;;;;;5029910;28;20018;-85
2021/12/04 01:26:39;;;;;;;24.00;10.77;;;-0.70;99.90;;;;;;5039057;28;20022;-88
2021/12/04 01:29:05;;;;;;;25.77;11.18;;;-0.80;99.90;;;;;;5038984;28;20025;-88
2021/12/04 01:31:31;;;;;;;24.98;10.88;;;-0.80;99.90;;;;;;5065410;22;20034;-52
2021/12/04 01:33:57;;;;;;;27.67;10.85;;;-0.80;99.90;;;;;;5005973;28;20060;-51
2021/12/04 01:36:24;;;;;;;29.00;10.95;;;-0.80;99.90;;;;;;5011411;28;20022;-51
2021/12/04 01:38:50;;;;;;;24.75;10.68;;;-0.80;99.90;;;;;;5010621;28;20041;-53
2021/12/04 01:41:17;;;;;;;26.13;11.60;;;-0.90;99.90;;;;;;5010588;28;20421;-52
2021/12/04 01:43:42;;;;;;;24.35;10.82;;;-0.80;99.90;;;;;;5010423;28;20519;-51
2021/12/04 01:46:08;;;;;;;23.83;9.45;;;-0.90;99.90;;;;;;5010515;28;20117;-50
2021/12/04 01:48:34;;;;;;;24.73;10.68;;;-0.80;99.90;;;;;;5010481;28;20153;-51
2021/12/04 01:51:00;;;;;;;22.00;10.45;;;-0.80;99.90;;;;;;5010384;28;20041;-51
2021/12/04 01:53:27;;;;;;;22.00;9.23;;;-0.80;99.90;;;;;;5027921;28;20448;-51
2021/12/04 01:55:55;;;;;;;26.65;9.70;;;-0.80;99.90;;;;;;5030556;28;20276;-51
2021/12/04 01:58:21;;;;;;;20.63;8.38;;;-0.70;99.90;;;;;;5012299;28;20021;-50
2021/12/04 02:00:47;;;;;;;18.02;7.90;;;-0.60;99.90;;;;;;5030498;28;20025;-51
2021/12/04 02:03:14;;;;;;;22.60;9.40;;;-0.60;99.90;;;;;;5033276;28;20389;-51
2021/12/04 02:05:42;;;;;;;15.53;7.50;;;-0.60;99.90;;;;;;5034100;28;20025;-51
2021/12/04 02:08:11;;;;;;;19.35;8.95;;;-0.50;99.90;;;;;;5034449;28;20056;-51
2021/12/04 02:10:37;;;;;;;20.75;8.43;;;-0.50;99.90;;;;;;5033935;28;20073;-51
2021/12/04 02:13:03;;;;;;;17.30;8.88;;;-0.60;99.90;;;;;;5034007;28;20623;-52
2021/12/04 02:15:29;;;;;;;19.90;8.73;;;-0.50;99.90;;;;;;5035713;28;20026;-51
2021/12/04 02:17:56;;;;;;;18.63;7.53;;;-0.50;99.90;;;;;;5035560;28;20037;-51
2021/12/04 02:20:24;;;;;;;17.58;8.85;;;-0.50;99.90;;;;;;5016657;28;20057;-52
2021/12/04 02:22:50;;;;;;;16.77;8.82;;;-0.50;99.90;;;;;;5035554;28;20033;-51
2021/12/04 02:25:16;;;;;;;21.10;8.73;;;-0.50;99.90;;;;;;5034649;28;20501;-53
2021/12/04 02:27:43;;;;;;;21.17;8.48;;;-0.50;99.90;;;;;;5029746;28;20030;-53
2021/12/04 02:30:16;;;;;;;17.80;8.98;;;-0.40;99.90;;;;;;5013735;28;20127;-52
2021/12/04 02:32:42;;;;;;;19.83;9.45;;;-0.40;99.90;;;;;;5013654;28;20507;-51
2021/12/04 02:35:09;;;;;;;17.38;7.57;;;-0.40;99.90;;;;;;5028965;28;20029;-52
2021/12/04 02:37:37;;;;;;;18.92;8.55;;;-0.40;99.90;;;;;;5029486;28;20114;-52
2021/12/04 02:40:06;;;;;;;16.85;7.35;;;-0.30;99.90;;;;;;5013630;28;20109;-50
2021/12/04 02:42:32;;;;;;;17.88;7.70;;;-0.30;99.90;;;;;;5013770;28;20366;-51
2021/12/04 02:45:00;;;;;;;14.85;7.32;;;-0.30;99.90;;;;;;5013474;28;20033;-50
2021/12/04 02:47:27;;;;;;;17.85;7.70;;;-0.40;99.90;;;;;;5018344;28;20482;-51
2021/12/04 02:49:54;;;;;;;15.63;7.45;;;-0.40;99.90;;;;;;5014027;28;20573;-51
2021/12/04 02:52:20;;;;;;;15.77;7.37;;;-0.40;99.90;;;;;;5014140;28;20026;-51
2021/12/04 02:54:47;;;;;;;12.40;6.97;;;-0.40;99.90;;;;;;5013470;28;20628;-51
2021/12/04 02:57:15;;;;;;;;;;;-0.40;99.90;;;;;;5013583;28;20113;-51
2021/12/04 02:59:42;;;;;;;16.48;8.57;;;-0.40;99.90;;;;;;5013422;28;19905;-51
2021/12/04 03:02:19;;;;;;;;;;;-0.30;99.90;;;;;;5014181;28;20037;-50
2021/12/04 03:04:48;;;;;;;18.17;7.82;;;-0.30;99.90;;;;;;5013441;28;19913;-50
2021/12/04 03:07:14;;;;;;;15.85;7.30;;;-0.30;99.90;;;;;;5013203;28;20026;-51
2021/12/04 03:09:40;;;;;;;15.93;7.50;;;-0.30;99.90;;;;;;5013117;28;20096;-50
2021/12/04 03:12:07;;;;;;;15.05;7.75;;;-0.30;99.90;;;;;;5020384;28;20026;-50
2021/12/04 03:14:33;;;;;;;18.58;7.70;;;-0.30;99.90;;;;;;5032104;28;20033;-53
2021/12/04 03:16:59;;;;;;;12.93;6.75;;;-0.30;99.90;;;;;;5033165;28;20022;-51
2021/12/04 03:19:26;;;;;;;16.63;7.88;;;-0.40;99.90;;;;;;5032321;28;20025;-51
2021/12/04 03:21:52;;;;;;;18.63;7.45;;;-0.40;99.90;;;;;;5032784;28;20132;-51
2021/12/04 03:24:19;;;;;;;17.27;8.25;;;-0.30;99.90;;;;;;5032615;28;20049;-51
2021/12/04 03:26:47;;;;;;;14.00;7.65;;;-0.30;99.90;;;;;;5033064;28;20029;-51
2021/12/04 03:29:17;;;;;;;19.65;8.10;;;-0.40;99.90;;;;;;5016175;28;20038;-51
2021/12/04 03:42:28;;;;;;;16.05;7.78;;;-0.40;99.90;;;;;;5012868;28;20049;-53
2021/12/04 03:44:54;;;;;;;18.60;7.68;;;-0.40;99.90;;;;;;5012516;28;20022;-51
2021/12/04 03:47:20;;;;;;;16.25;7.55;;;-0.30;99.90;;;;;;5012260;28;20068;-51
2021/12/04 03:49:47;;;;;;;16.58;7.63;;;-0.40;99.90;;;;;;5012295;28;20041;-51
2021/12/04 03:52:13;;;;;;;17.00;8.02;;;-0.30;99.90;;;;;;5012427;28;20033;-51
2021/12/04 03:54:41;;;;;;;17.98;8.25;;;-0.30;99.90;;;;;;5012469;28;20030;-52
2021/12/04 03:57:07;;;;;;;14.23;7.20;;;-0.40;99.90;;;;;;5012617;28;20054;-51
2021/12/04 03:59:35;;;;;;;16.73;7.35;;;-0.30;99.90;;;;;;5011869;28;20057;-52
2021/12/04 04:02:01;;;;;;;15.18;7.28;;;-0.40;99.90;;;;;;5012189;28;20026;-50
2021/12/04 04:04:27;;;;;;;12.15;7.10;;;-0.40;99.90;;;;;;5012881;28;20037;-51
2021/12/04 04:06:53;;;;;;;15.88;7.47;;;-0.40;99.90;;;;;;5012486;28;20026;-51
2021/12/04 04:09:18;;;;;;;16.15;7.35;;;-0.40;99.90;;;;;;5013874;28;20037;-52
2021/12/04 04:11:46;;;;;;;16.42;7.22;;;-0.40;99.90;;;;;;5012449;28;20100;-52
2021/12/04 04:14:12;;;;;;;16.10;8.13;;;-0.40;99.90;;;;;;5012878;28;20030;-52
2021/12/04 04:16:39;;;;;;;16.52;7.78;;;-0.40;99.90;;;;;;5012322;28;20026;-51
2021/12/04 04:19:09;;;;;;;11.73;6.50;;;-0.40;99.90;;;;;;5011573;28;20030;-52
2021/12/04 04:21:39;;;;;;;15.38;6.63;;;-0.40;99.90;;;;;;5011701;28;20030;-51
2021/12/04 04:24:10;;;;;;;19.17;8.32;;;-0.40;99.90;;;;;;5011821;28;20354;-52
2021/12/04 04:26:37;;;;;;;16.13;8.55;;;-0.40;99.90;;;;;;5011735;28;20034;-52
2021/12/04 04:29:04;;;;;;;13.88;8.18;;;-0.40;99.90;;;;;;4996829;28;20018;-52
2021/12/04 04:31:32;;;;;;;15.77;8.50;;;-0.40;99.90;;;;;;4992082;28;20129;-51
2021/12/04 04:34:03;;;;;;;18.35;9.15;;;-0.50;99.90;;;;;;4997687;28;20037;-51
2021/12/04 04:36:44;;;;;;;19.48;9.43;;;-0.50;99.90;;;;;;5011792;28;20051;-52
2021/12/04 05:11:45;;;;;;;19.90;9.55;;;-0.80;99.90;;;;;;5011338;28;20165;-51
2021/12/04 05:14:18;;;;;;;24.17;9.50;;;-0.70;99.90;;;;;;5010974;28;20043;-52
2021/12/04 05:16:53;;;;;;;21.85;10.13;;;-0.70;99.90;;;;;;5010758;28;20041;-51
2021/12/04 05:19:26;;;;;;;20.23;10.18;;;-0.70;99.90;;;;;;5010790;28;20775;-51
2021/12/04 05:21:53;;;;;;;18.05;8.45;;;-0.70;99.90;;;;;;5010707;28;20543;-51
2021/12/04 05:24:19;;;;;;;20.80;9.95;;;-0.70;99.90;;;;;;5010892;28;20061;-51
2021/12/04 05:26:45;;;;;;;18.55;10.25;;;-0.70;99.90;;;;;;5010801;28;20393;-51
2021/12/04 05:29:11;;;;;;;18.75;10.50;;;-0.80;99.90;;;;;;5010471;28;20470;-51
2021/12/04 05:31:36;;;;;;;16.75;9.80;;;-0.70;99.90;;;;;;5010495;28;20545;-52
2021/12/04 05:34:02;;;;;;;14.52;8.55;;;-0.70;99.90;;;;;;5017376;28;20025;-51
2021/12/04 05:36:28;;;;;;;16.50;9.00;;;-0.60;99.90;;;;;;5029887;28;20505;-52
2021/12/04 05:38:54;;;;;;;17.48;8.40;;;-0.60;99.90;;;;;;5015505;28;20030;-50
2021/12/04 05:41:19;;;;;;;16.55;7.90;;;-0.60;99.90;;;;;;5010645;28;20421;-50
2021/12/04 05:43:46;;;;;;;17.55;9.52;;;-0.60;99.90;;;;;;5010488;28;20055;-51
2021/12/04 05:49:03;;;;;;;16.40;9.50;;;-0.60;99.90;;;;;;5010729;28;20036;-52
2021/12/04 05:54:00;;;;;;;17.45;10.50;;;-0.60;99.90;;;;;;5010682;28;20084;-52
2021/12/04 05:56:28;;;;;;;19.15;10.98;;;-0.60;99.90;;;;;;5010507;28;20037;-50
2021/12/04 05:58:53;;;;;;;20.77;10.68;;;-0.70;99.90;;;;;;5010501;28;20029;-51
2021/12/04 06:01:21;;;;;;;21.95;10.30;;;-0.60;99.90;;;;;;5010892;28;20037;-53
2021/12/04 06:03:47;;;;;;;15.85;8.80;;;-0.70;99.90;;;;;;4993042;28;20394;-51
2021/12/04 06:06:13;;;;;;;16.80;8.70;;;-0.70;99.90;;;;;;5011254;28;20042;-51
2021/12/04 06:08:39;;;;;;;17.83;10.30;;;-0.60;99.90;;;;;;5011045;28;20026;-50
2021/12/04 06:11:04;;;;;;;18.20;10.35;;;-0.70;99.90;;;;;;5010069;28;20044;-51
2021/12/04 06:13:30;;;;;;;17.75;9.68;;;-0.60;99.90;;;;;;5010395;28;20040;-51
2021/12/04 06:15:56;;;;;;;18.30;9.93;;;-0.60;99.90;;;;;;5010620;28;20057;-51
2021/12/04 06:18:23;;;;;;;19.40;9.53;;;-0.70;99.90;;;;;;5010679;28;20029;-51
2021/12/04 06:23:34;;;;;;;19.48;10.10;;;-0.60;99.90;;;;;;5009873;28;20060;-51
2021/12/04 06:26:01;;;;;;;19.90;9.32;;;-0.60;99.90;;;;;;5010539;28;20022;-52
2021/12/04 06:28:26;;;;;;;19.75;9.93;;;-0.50;99.90;;;;;;5010245;28;20101;-50
2021/12/04 06:30:54;;;;;;;20.23;10.98;;;-0.50;99.90;;;;;;5010088;28;20124;-52
2021/12/04 06:33:21;;;;;;;21.10;10.60;;;-0.50;99.90;;;;;;5010262;28;20100;-51
2021/12/04 06:35:47;;;;;;;33.72;14.05;;;-0.50;99.90;;;;;;5030007;28;20528;-52
2021/12/04 06:38:17;;;;;;;29.25;13.55;;;-0.50;99.90;;;;;;5020036;28;20172;-51
2021/12/04 06:40:44;;;;;;;34.92;14.38;;;-0.50;99.90;;;;;;5009924;28;20117;-51
2021/12/04 06:43:12;;;;;;;36.33;15.88;;;-0.40;99.90;;;;;;5010063;28;20029;-52
2021/12/04 06:45:41;;;;;;;27.98;13.95;;;-0.50;99.90;;;;;;5011985;28;20045;-50
2021/12/04 06:48:10;;;;;;;27.73;12.10;;;-0.50;99.90;;;;;;5010369;28;20081;-52
2021/12/04 06:53:14;;;;;;;30.20;11.80;;;-0.60;99.90;;;;;;5013630;28;20030;-52
2021/12/04 06:55:44;;;;;;;27.00;12.07;;;-0.50;99.90;;;;;;5013607;28;20046;-51
2021/12/04 06:58:11;;;;;;;23.65;10.75;;;-0.50;99.90;;;;;;5013360;28;20029;-52
2021/12/04 07:00:37;;;;;;;27.42;12.50;;;-0.60;99.90;;;;;;5013472;28;20112;-51
2021/12/04 07:03:03;;;;;;;28.15;12.05;;;-0.60;99.90;;;;;;5012958;28;20026;-51
2021/12/04 07:05:29;;;;;;;27.77;10.57;;;-0.70;99.90;;;;;;5013515;28;20088;-51
2021/12/04 07:07:55;;;;;;;31.70;12.02;;;-0.60;99.90;;;;;;5013090;28;20026;-51
2021/12/04 07:10:20;;;;;;;25.80;10.95;;;-0.60;99.90;;;;;;5013063;28;20040;-50
2021/12/04 07:12:46;;;;;;;29.95;12.10;;;-0.60;99.90;;;;;;5013111;28;20030;-51
2021/12/04 07:15:12;;;;;;;33.65;13.18;;;-0.60;99.90;;;;;;5013058;28;20088;-51
2021/12/04 07:17:39;;;;;;;33.70;13.05;;;-0.60;99.90;;;;;;5012939;28;20030;-51
2021/12/04 07:20:08;;;;;;;32.20;12.25;;;-0.50;99.90;;;;;;5012807;28;20485;-51
2021/12/04 07:22:36;;;;;;;28.00;12.18;;;-0.50;99.90;;;;;;5012473;28;20026;-53
2021/12/04 07:25:03;;;;;;;24.20;10.65;;;-0.50;99.90;;;;;;5012951;28;20033;-52
2021/12/04 07:27:29;;;;;;;24.40;10.68;;;-0.50;99.90;;;;;;5012526;28;20025;-51
2021/12/04 07:29:56;;;;;;;23.30;11.45;;;-0.40;99.90;;;;;;5012610;28;20037;-52
2021/12/04 07:32:21;;;;;;;28.65;12.07;;;-0.40;99.90;;;;;;5012565;28;20068;-52
2021/12/04 07:34:47;;;;;;;34.20;13.70;;;-0.30;99.90;;;;;;5024627;28;20473;-51
2021/12/04 07:37:13;;;;;;;27.65;11.68;;;-0.30;99.90;;;;;;5031228;28;20477;-50
2021/12/04 07:39:39;;;;;;;36.53;15.60;;;-0.30;99.90;;;;;;5012422;28;20034;-52
2021/12/04 07:42:05;;;;;;;31.27;13.70;;;-0.30;99.90;;;;;;5012923;28;20441;-51
2021/12/04 07:44:31;;;;;;;35.83;15.10;;;-0.20;99.90;;;;;;5012571;28;20025;-51
2021/12/04 07:46:57;;;;;;;58.10;20.27;;;-0.10;99.90;;;;;;5012509;28;20512;-50
2021/12/04 07:49:23;;;;;;;79.97;25.08;;;0.00;99.90;;;;;;5012457;28;20026;-51
2021/12/04 07:51:50;;;;;;;122.50;37.20;;;0.00;99.90;;;;;;5012488;28;20040;-52
2021/12/04 07:54:16;;;;;;;125.25;34.75;;;0.10;99.90;;;;;;5012525;28;20030;-51
2021/12/04 07:56:42;;;;;;;113.37;36.27;;;0.20;99.90;;;;;;5012444;28;20030;-51
2021/12/04 07:59:08;;;;;;;53.47;21.55;;;0.20;99.90;;;;;;5011943;28;20261;-50
2021/12/04 08:01:34;;;;;;;51.13;16.70;;;0.20;99.90;;;;;;5012099;28;20061;-52
2021/12/04 08:03:59;;;;;;;40.90;16.48;;;0.20;99.90;;;;;;5011992;28;20509;-51
2021/12/04 08:06:26;;;;;;;41.10;16.58;;;0.30;99.90;;;;;;5012019;28;20033;-51
2021/12/04 08:08:53;;;;;;;45.60;15.55;;;0.30;99.90;;;;;;5011879;28;20018;-50
2021/12/04 08:11:21;;;;;;;41.70;15.70;;;0.40;99.90;;;;;;5011925;28;20129;-51
2021/12/04 08:13:48;;;;;;;37.40;14.93;;;0.50;99.90;;;;;;5011759;28;20022;-50
2021/12/04 08:16:13;;;;;;;35.33;14.43;;;0.50;99.90;;;;;;5012224;28;20053;-52
2021/12/04 08:18:39;;;;;;;37.13;14.65;;;0.70;99.90;;;;;;5011890;28;20167;-52
2021/12/04 08:21:05;;;;;;;36.80;15.50;;;0.80;99.90;;;;;;5012054;28;20026;-52
2021/12/04 08:23:30;;;;;;;35.67;13.93;;;0.70;99.90;;;;;;5011476;28;20076;-52
2021/12/04 08:25:56;;;;;;;32.10;13.50;;;0.80;99.90;;;;;;5011941;28;20018;-52
2021/12/04 08:28:23;;;;;;;31.48;13.57;;;1.00;99.90;;;;;;5011456;28;20026;-51
2021/12/04 08:30:50;;;;;;;37.22;13.20;;;1.00;99.90;;;;;;5011850;28;20126;-52
2021/12/04 08:33:16;;;;;;;26.10;11.95;;;1.10;99.90;;;;;;5011691;28;20085;-52
2021/12/04 08:35:42;;;;;;;32.38;12.82;;;1.30;99.90;;;;;;5031190;28;20026;-52
2021/12/04 08:38:10;;;;;;;31.33;13.15;;;1.40;99.90;;;;;;5022645;28;20026;-52
2021/12/04 08:40:38;;;;;;;32.55;13.40;;;1.60;99.90;;;;;;5011533;28;20488;-52
2021/12/04 08:43:05;;;;;;;27.35;11.43;;;1.70;99.90;;;;;;5010587;28;20470;-52
2021/12/04 08:45:31;;;;;;;28.13;13.18;;;1.80;99.90;;;;;;5010532;28;20045;-51
2021/12/04 08:47:57;;;;;;;25.50;12.53;;;2.10;99.90;;;;;;5011746;28;20028;-51
2021/12/04 08:50:28;;;;;;;25.27;11.02;;;2.30;99.90;;;;;;5015538;28;20340;-52
2021/12/04 08:52:56;;;;;;;28.55;11.63;;;2.20;99.90;;;;;;5011299;28;20022;-52
2021/12/04 08:55:23;;;;;;;26.15;11.90;;;2.70;99.90;;;;;;4993008;28;20065;-52
2021/12/04 08:57:49;;;;;;;34.25;11.30;;;2.80;99.90;;;;;;5010066;28;20180;-52
2021/12/04 09:00:20;;;;;;;23.95;13.02;;;3.20;97.00;;;;;;5009614;28;20112;-51
2021/12/04 09:02:46;;;;;;;23.23;10.93;;;3.40;96.50;;;;;;5009300;28;20489;-51
2021/12/04 09:05:14;;;;;;;21.83;10.37;;;3.10;95.10;;;;;;5010333;28;20025;-51
2021/12/04 09:07:39;;;;;;;;;;;3.10;96.50;;;;;;5009682;28;20037;-50
2021/12/04 09:10:06;;;;;;;23.60;10.02;;;3.10;96.10;;;;;;5010303;28;19913;-51
2021/12/04 09:12:33;;;;;;;22.08;10.45;;;3.60;94.30;;;;;;5010087;28;20030;-52
2021/12/04 09:15:00;;;;;;;23.45;10.63;;;3.80;93.00;;;;;;5010691;28;20038;-52
2021/12/04 09:17:26;;;;;;;24.48;10.57;;;4.00;92.60;;;;;;5011033;28;20026;-52
2021/12/04 09:19:51;;;;;;;25.48;10.18;;;3.60;91.40;;;;;;5010649;28;20037;-52
2021/12/04 09:22:24;;;;;;;26.50;10.65;;;3.90;93.10;;;;;;5010653;28;20084;-51
2021/12/04 09:24:54;;;;;;;28.50;11.90;;;4.20;90.80;;;;;;5010556;28;20125;-52
2021/12/04 09:30:16;;;;;;;26.00;11.38;;;4.00;89.10;;;;;;5013947;28;20049;-50
2021/12/04 10:00:10;;;;;;;20.80;9.05;;;4.10;88.20;;;;;;5082643;28;20090;-79
2021/12/04 10:19:34;;;;;;;28.20;9.85;;;5.00;82.80;;;;;;5083348;28;20134;-80
2021/12/04 10:34:58;;;;;;;26.10;11.13;;;5.20;80.40;;;;;;5074386;28;20013;-82
2021/12/04 10:37:26;;;;;;;18.95;8.93;;;5.50;81.60;;;;;;5055755;28;20476;-83
2021/12/04 10:39:52;;;;;;;;;;;5.30;78.80;;;;;;5073318;28;20091;-84
2021/12/04 10:42:26;;;;;;;19.02;9.23;;;5.70;76.90;;;;;;5069734;28;19919;-83
2021/12/04 10:44:55;;;;;;;24.33;9.98;;;5.90;76.40;;;;;;5070340;28;20107;-82
2021/12/04 10:47:23;;;;;;;17.27;8.05;;;6.30;76.90;;;;;;5073228;28;20020;-85
2021/12/04 10:50:18;;;;;;;19.35;9.10;;;6.00;75.40;;;;;;5060167;28;20060;-84
2021/12/04 10:55:38;;;;;;;16.50;7.40;;;6.10;75.50;;;;;;5079927;28;20464;-85
2021/12/04 11:01:04;;;;;;;20.00;9.18;;;6.20;73.50;;;;;;5084883;28;20028;-86
2021/12/04 11:03:50;;;;;;;21.75;8.00;;;6.40;76.00;;;;;;5061032;28;20361;-86
2021/12/04 11:42:54;;;;;;;20.08;7.88;;;5.30;76.90;;;;;;5073161;28;20071;-89
2021/12/04 11:45:29;;;;;;;17.20;8.57;;;5.20;76.90;;;;;;5054993;28;20369;-88
2021/12/04 11:48:01;;;;;;;18.33;7.65;;;5.30;75.30;;;;;;5074242;28;20030;-89
2021/12/04 11:50:37;;;;;;;20.40;6.80;;;5.40;75.80;;;;;;5057551;28;20036;-88
2021/12/04 11:53:12;;;;;;;11.85;6.00;;;5.30;76.60;;;;;;5050970;28;20029;-87
2021/12/04 11:55:43;;;;;;;10.00;5.40;;;5.40;76.70;;;;;;5052369;28;20353;-83
2021/12/04 11:58:24;;;;;;;13.77;6.40;;;5.50;74.80;;;;;;5053568;28;20025;-84
2021/12/04 12:00:54;;;;;;;13.25;6.35;;;5.50;76.00;;;;;;5053695;28;20028;-86
2021/12/04 12:03:24;;;;;;;14.48;5.93;;;5.50;74.60;;;;;;5075283;28;20037;-86
2021/12/04 12:05:54;;;;;;;12.00;5.82;;;5.20;72.60;;;;;;5084612;28;20087;-81
2021/12/04 12:08:35;;;;;;;13.75;5.70;;;4.90;72.50;;;;;;5069321;28;20013;-86
2021/12/04 12:11:04;;;;;;;14.65;5.40;;;4.60;72.10;;;;;;5089469;28;20036;-83
2021/12/04 12:13:33;;;;;;;10.43;5.00;;;4.60;74.20;;;;;;5083235;28;20365;-86
2021/12/04 12:16:08;;;;;;;16.40;5.47;;;4.50;75.10;;;;;;5061180;28;20472;-88
2021/12/04 12:18:54;;;;;;;13.25;4.95;;;4.30;77.70;;;;;;5053959;28;20064;-86
2021/12/04 12:21:26;;;;;;;15.70;6.15;;;4.20;79.20;;;;;;5062269;28;20487;-82
2021/12/04 12:24:14;;;;;;;13.23;6.07;;;4.20;81.60;;;;;;5050117;28;20020;-85
2021/12/04 12:38:09;;;;;;;18.05;6.53;;;4.00;82.90;;;;;;5064585;28;20050;-83
2021/12/04 12:40:35;;;;;;;17.92;6.25;;;4.00;81.90;;;;;;5048486;28;20117;-84
2021/12/04 12:43:17;;;;;;;16.80;7.30;;;4.00;82.40;;;;;;5047530;28;20028;-83
2021/12/04 12:45:56;;;;;;;17.60;7.03;;;3.90;80.90;;;;;;5045589;28;20037;-91
2021/12/04 12:48:22;;;;;;;17.23;7.50;;;3.90;82.70;;;;;;5045414;28;20021;-88
2021/12/04 12:50:48;;;;;;;16.77;7.35;;;3.80;81.50;;;;;;5043976;28;20028;-87
2021/12/04 12:53:26;;;;;;;16.42;6.90;;;3.80;82.30;;;;;;5059500;28;20017;-86
2021/12/04 12:56:02;;;;;;;17.60;7.72;;;3.70;80.60;;;;;;5049667;28;20020;-87
2021/12/04 12:58:38;;;;;;;21.50;7.95;;;3.70;81.00;;;;;;5057678;28;20131;-89
2021/12/04 13:12:50;;;;;;;22.58;8.85;;;3.60;81.80;;;;;;5068664;28;20083;-89
2021/12/04 13:15:33;;;;;;;24.42;10.10;;;3.60;81.20;;;;;;5060659;28;20072;-87
2021/12/04 13:18:16;;;;;;;18.65;8.68;;;3.60;81.80;;;;;;5065738;28;20035;-87
2021/12/04 13:20:43;;;;;;;22.60;9.38;;;3.50;81.90;;;;;;5065785;28;20029;-83
2021/12/04 13:23:12;;;;;;;22.63;10.48;;;3.50;81.20;;;;;;5063008;28;20021;-83
2021/12/04 13:25:55;;;;;;;22.00;9.60;;;3.50;82.30;;;;;;5043040;28;20370;-82
2021/12/04 13:28:24;;;;;;;20.55;9.98;;;3.50;82.80;;;;;;5058464;28;20017;-83
2021/12/04 13:30:51;;;;;;;22.95;9.93;;;3.50;83.70;;;;;;5063748;28;20051;-84
2021/12/04 13:33:17;;;;;;;19.73;8.80;;;3.50;84.40;;;;;;5068728;28;20036;-83
2021/12/04 13:35:46;;;;;;;28.10;11.48;;;3.50;84.60;;;;;;5084465;28;20114;-85
2021/12/04 13:38:16;;;;;;;29.60;11.85;;;3.40;85.70;;;;;;5053013;28;20016;-85
2021/12/04 13:40:44;;;;;;;27.50;12.60;;;3.40;84.80;;;;;;5070737;28;20055;-84
2021/12/04 13:43:12;;;;;;;25.65;10.38;;;3.40;87.90;;;;;;5053695;28;20095;-84
2021/12/04 13:45:38;;;;;;;16.38;6.35;;;3.10;93.20;;;;;;5056636;28;20021;-81
2021/12/04 13:48:08;;;;;;;22.50;8.60;;;2.70;99.90;;;;;;5073728;28;20036;-78
2021/12/04 13:53:15;;;;;;;18.63;7.78;;;2.30;99.90;;;;;;5090506;28;20039;-85
2021/12/04 13:55:45;;;;;;;17.08;7.28;;;2.00;99.90;;;;;;5060896;28;20020;-83
2021/12/04 13:58:11;;;;;;;17.50;8.02;;;1.90;99.90;;;;;;5062383;28;20476;-85
2021/12/04 14:00:37;;;;;;;21.38;9.27;;;1.80;99.90;;;;;;5060074;28;20108;-87
2021/12/04 14:03:04;;;;;;;19.13;8.77;;;1.90;99.90;;;;;;5064360;28;20036;-93
2021/12/04 14:05:30;;;;;;;18.98;8.05;;;1.80;99.90;;;;;;5068747;28;20059;-92
2021/12/04 14:07:59;;;;;;;19.05;8.15;;;1.90;99.90;;;;;;5080042;28;20099;-92
2021/12/04 14:10:32;;;;;;;18.80;8.02;;;2.10;99.90;;;;;;5067061;28;20041;-91
2021/12/04 14:13:01;;;;;;;22.20;9.68;;;2.10;99.90;;;;;;5055638;28;20127;-88
2021/12/04 14:15:27;;;;;;;17.73;9.23;;;2.20;99.90;;;;;;5057284;28;20027;-88
2021/12/04 14:18:04;;;;;;;19.40;8.65;;;2.20;99.90;;;;;;5059632;28;20437;-93
2021/12/04 14:20:54;;;;;;;21.88;9.60;;;2.30;99.90;;;;;;5043847;28;20480;-93
2021/12/04 14:23:24;;;;;;;22.85;10.95;;;2.30;99.90;;;;;;5078866;28;20043;-91
2021/12/04 14:25:54;;;;;;;20.98;10.00;;;2.30;99.90;;;;;;5057163;28;20009;-87
2021/12/04 14:28:43;;;;;;;24.95;10.63;;;2.30;99.90;;;;;;5055021;28;20036;-85
2021/12/04 14:31:15;;;;;;;27.33;10.80;;;2.40;99.90;;;;;;5045795;28;20123;-89
2021/12/04 14:33:55;;;;;;;25.27;11.38;;;2.40;99.90;;;;;;5064609;28;20029;-92
2021/12/04 14:36:27;;;;;;;34.35;13.45;;;2.40;99.90;;;;;;5054665;28;20664;-90
2021/12/04 14:38:53;;;;;;;30.58;13.45;;;2.40;99.90;;;;;;5059073;28;20059;-84
2021/12/04 14:41:19;;;;;;;32.28;13.98;;;2.40;99.90;;;;;;5057001;28;20048;-86
2021/12/04 14:43:45;;;;;;;27.20;11.57;;;2.30;99.90;;;;;;5076708;28;20078;-93
2021/12/04 14:46:15;;;;;;;23.35;11.27;;;2.30;99.90;;;;;;5061282;28;20020;-83
2021/12/04 14:48:44;;;;;;;25.58;12.18;;;2.30;99.90;;;;;;5057959;28;20361;-83
2021/12/04 14:51:14;;;;;;;27.08;12.48;;;2.20;99.90;;;;;;5056595;28;20399;-82
2021/12/04 14:53:48;;;;;;;37.45;14.75;;;2.20;99.90;;;;;;5048519;28;20115;-82
2021/12/04 14:56:19;;;;;;;175.35;89.47;;;2.30;99.90;;;;;;5058151;28;20035;-82
2021/12/04 14:58:45;;;;;;;40.53;20.30;;;2.30;99.90;;;;;;5059148;28;20028;-85
2021/12/04 15:01:14;;;;;;;36.13;17.10;;;2.30;99.90;;;;;;5054982;28;20032;-81
2021/12/04 15:03:44;;;;;;;30.83;13.65;;;2.30;99.90;;;;;;5053511;28;20028;-79
2021/12/04 15:06:14;;;;;;;25.95;12.05;;;2.20;99.90;;;;;;5053557;28;20064;-82
2021/12/04 15:08:46;;;;;;;30.48;13.50;;;2.20;99.90;;;;;;5040985;28;20441;-82
2021/12/04 15:11:16;;;;;;;28.58;12.77;;;2.30;99.90;;;;;;5060759;28;20028;-84
2021/12/04 15:13:56;;;;;;;34.38;14.93;;;2.30;99.90;;;;;;5065535;28;20024;-86
2021/12/04 15:16:36;;;;;;;27.75;12.63;;;2.30;99.90;;;;;;5052883;28;20029;-83
2021/12/04 15:19:22;;;;;;;31.27;13.07;;;2.20;99.90;;;;;;5057768;28;20029;-86
2021/12/04 15:21:56;;;;;;;32.33;12.90;;;2.30;99.90;;;;;;5053954;28;20504;-83
2021/12/04 15:24:25;;;;;;;29.83;13.02;;;2.40;99.90;;;;;;5074909;28;20070;-84
2021/12/04 15:26:58;;;;;;;30.98;14.52;;;2.40;99.90;;;;;;5075888;28;20111;-89
2021/12/04 15:29:30;;;;;;;30.73;13.50;;;2.30;99.90;;;;;;5057879;28;20032;-84
2021/12/04 15:32:00;;;;;;;29.38;13.30;;;2.30;99.90;;;;;;5081698;28;20028;-80
2021/12/04 15:34:44;;;;;;;31.77;13.13;;;2.40;99.90;;;;;;5096184;28;20029;-82
2021/12/04 15:37:10;;;;;;;69.85;31.67;;;2.40;99.90;;;;;;5074048;28;20086;-81
2021/12/04 15:39:46;;;;;;;70.35;34.58;;;2.50;99.90;;;;;;5076663;28;20121;-81
2021/12/04 15:45:32;;;;;;;104.05;41.83;;;2.40;99.90;;;;;;5073873;28;20120;-84
2021/12/04 15:47:36;;;;;;;140.55;48.30;;;2.40;99.90;;;;;;5072391;28;20606;-84
2021/12/04 15:53:05;;;;;;;112.50;44.28;;;2.30;99.90;;;;;;5076920;28;20033;-83
2021/12/04 15:55:45;;;;;;;51.42;23.30;;;2.30;99.90;;;;;;5063794;28;20024;-82
2021/12/04 15:58:24;;;;;;;59.92;28.02;;;2.20;99.90;;;;;;5061576;28;20031;-84
2021/12/04 16:00:54;;;;;;;47.67;20.58;;;2.10;99.90;;;;;;5081547;28;19993;-83
2021/12/04 16:03:24;;;;;;;37.75;16.55;;;2.10;99.90;;;;;;5062063;28;20037;-84
2021/12/04 16:05:57;;;;;;;35.45;13.50;;;2.20;99.90;;;;;;5079141;28;20066;-84
2021/12/04 16:08:27;;;;;;;33.00;13.38;;;2.20;99.90;;;;;;5077132;28;20008;-81